Time;durP1;ratioP1;P1;durP2;ratioP2;P2;SDS_P1;SDS_P2;PMS_P1;PMS_P2;Temp;Humidity;BMP_temperature;BMP_pressure;BME280_temperature;BME280_humidity;BME280_pressure;Samples;Min_cycle;Max_cycle;Signal;HPM_P1;HPM_P2
2022/06/09 00:01:58;;;;;;;31.20;12.10;;;15.50;99.90;;;;;;4951290;28;20513;-86
2022/06/09 00:04:33;;;;;;;39.72;13.18;;;14.50;99.90;;;;;;4968267;28;20035;-89
2022/06/09 00:06:59;;;;;;;;;;;14.50;99.90;;;;;;4980653;28;20523;-83
2022/06/09 00:09:37;;;;;;;32.53;12.73;;;15.20;99.90;;;;;;4964113;28;20378;-84
2022/06/09 00:12:03;;;;;;;35.83;12.48;;;14.50;99.90;;;;;;4960911;28;20125;-89
2022/06/09 00:14:28;;;;;;;37.38;12.90;;;14.50;99.90;;;;;;4968811;28;20046;-90
2022/06/09 00:16:54;;;;;;;30.80;12.63;;;14.80;99.90;;;;;;4968966;28;20043;-86
2022/06/09 00:19:20;;;;;;;30.77;13.65;;;14.40;99.90;;;;;;4949616;28;20110;-90
2022/06/09 00:21:46;;;;;;;35.75;13.13;;;14.50;99.90;;;;;;4950856;28;20462;-89
2022/06/09 00:24:12;;;;;;;33.40;14.82;;;14.50;99.90;;;;;;4966148;28;20078;-88
2022/06/09 00:26:37;;;;;;;31.70;13.20;;;14.50;99.90;;;;;;4952585;28;20051;-90
2022/06/09 00:29:05;;;;;;;31.90;15.45;;;14.40;99.90;;;;;;4973339;28;20070;-91
2022/06/09 00:31:31;;;;;;;41.97;17.40;;;14.40;99.90;;;;;;4972013;28;20514;-86
2022/06/09 00:33:57;;;;;;;35.15;15.23;;;15.20;99.90;;;;;;4967964;28;20119;-91
2022/06/09 00:36:23;;;;;;;40.35;17.67;;;14.40;99.90;;;;;;4951012;28;20059;-85
2022/06/09 00:38:49;;;;;;;38.88;15.60;;;13.80;99.90;;;;;;4970834;28;20618;-94
2022/06/09 00:41:14;;;;;;;36.72;14.68;;;14.40;99.90;;;;;;4967676;28;20122;-89
2022/06/09 00:43:42;;;;;;;34.90;15.00;;;14.40;99.90;;;;;;4953467;28;20200;-79
2022/06/09 00:46:21;;;;;;;35.40;14.52;;;14.40;99.90;;;;;;4961178;28;20054;-85
2022/06/09 00:49:04;;;;;;;29.40;15.68;;;14.40;99.90;;;;;;4966063;28;20038;-90
2022/06/09 00:51:38;;;;;;;38.90;15.45;;;14.40;99.90;;;;;;4955102;28;20050;-86
2022/06/09 00:54:21;;;;;;;32.25;15.02;;;14.40;99.90;;;;;;4968834;28;20096;-89
2022/06/09 00:57:02;;;;;;;41.10;15.30;;;14.40;99.90;;;;;;4949603;28;20047;-89
2022/06/09 00:59:30;;;;;;;35.03;14.85;;;14.00;99.90;;;;;;4951737;28;20480;-92
2022/06/09 01:01:59;;;;;;;30.40;14.50;;;14.40;99.90;;;;;;4970354;28;20059;-89
2022/06/09 01:04:26;;;;;;;44.25;16.33;;;14.40;99.90;;;;;;4954297;28;20039;-88
2022/06/09 01:06:58;;;;;;;37.67;16.98;;;14.40;99.90;;;;;;4955600;28;20051;-86
2022/06/09 01:09:26;;;;;;;32.60;16.38;;;14.70;99.90;;;;;;4970261;28;20046;-85
2022/06/09 01:11:54;;;;;;;35.63;16.10;;;14.40;99.90;;;;;;4953184;28;20047;-85
2022/06/09 01:14:23;;;;;;;49.63;17.95;;;14.30;99.90;;;;;;4950847;28;20065;-90
2022/06/09 01:17:08;;;;;;;34.70;17.05;;;14.40;99.90;;;;;;4971211;28;20046;-88
2022/06/09 01:19:52;;;;;;;;;;;15.20;99.90;;;;;;4950579;28;20046;-88
2022/06/09 01:22:46;;;;;;;38.55;16.83;;;14.30;99.90;;;;;;4964151;28;19926;-89
2022/06/09 01:25:33;;;;;;;42.43;18.70;;;14.80;99.90;;;;;;4951210;28;20117;-81
2022/06/09 01:28:12;;;;;;;39.22;18.05;;;14.30;99.90;;;;;;4969108;28;20295;-86
2022/06/09 01:31:04;;;;;;;41.85;15.95;;;14.30;99.90;;;;;;4966828;28;20059;-87
2022/06/09 01:33:45;;;;;;;41.97;17.50;;;14.30;99.90;;;;;;4919711;28;20457;-86
2022/06/09 01:36:13;;;;;;;33.22;15.15;;;14.30;99.90;;;;;;4968986;28;20402;-87
2022/06/09 01:38:52;;;;;;;41.40;15.90;;;14.30;99.90;;;;;;4968645;28;20074;-83
2022/06/09 01:41:19;;;;;;;41.95;17.85;;;14.30;99.90;;;;;;4944090;28;20047;-88
2022/06/09 01:43:46;;;;;;;35.53;17.98;;;14.30;99.90;;;;;;4966795;28;20034;-84
2022/06/09 01:46:21;;;;;;;40.05;17.05;;;14.30;99.90;;;;;;4954343;28;20125;-84
2022/06/09 01:48:51;;;;;;;40.72;16.65;;;14.20;99.90;;;;;;4948917;28;20398;-86
2022/06/09 01:51:19;;;;;;;48.58;18.10;;;14.20;99.90;;;;;;4952845;28;20052;-88
2022/06/09 01:54:23;;;;;;;45.60;21.17;;;14.30;99.90;;;;;;4964633;28;20153;-87
2022/06/09 01:57:07;;;;;;;42.10;19.23;;;14.20;99.90;;;;;;4950984;28;20359;-87
2022/06/09 01:59:49;;;;;;;47.00;19.88;;;14.20;99.90;;;;;;4964912;28;20047;-86
2022/06/09 02:02:20;;;;;;;47.88;19.63;;;14.20;99.90;;;;;;4966488;28;20047;-88
2022/06/09 02:04:51;;;;;;;51.22;21.13;;;14.20;99.90;;;;;;4953805;28;20051;-85
2022/06/09 02:07:19;;;;;;;38.53;17.83;;;14.20;99.90;;;;;;4966991;28;20074;-85
2022/06/09 02:09:45;;;;;;;40.80;19.50;;;14.20;99.90;;;;;;4970754;28;20046;-85
2022/06/09 02:12:15;;;;;;;47.30;20.60;;;14.20;99.90;;;;;;4951045;28;20357;-88
2022/06/09 02:14:46;;;;;;;43.55;19.23;;;14.20;99.90;;;;;;4951403;28;20514;-82
2022/06/09 02:17:12;;;;;;;44.97;19.90;;;15.00;99.90;;;;;;4970947;28;20114;-84
2022/06/09 02:19:40;;;;;;;45.15;20.60;;;14.00;99.90;;;;;;4968875;28;20585;-86
2022/06/09 02:22:08;;;;;;;42.72;20.17;;;14.20;99.90;;;;;;4970368;28;20365;-83
2022/06/09 02:24:34;;;;;;;43.00;19.48;;;14.10;99.90;;;;;;4970565;28;20088;-83
2022/06/09 02:27:00;;;;;;;38.58;19.10;;;14.10;99.90;;;;;;4969259;28;20494;-85
2022/06/09 02:29:27;;;;;;;49.03;19.75;;;14.00;99.90;;;;;;4965012;28;20059;-85
2022/06/09 02:31:53;;;;;;;45.45;18.75;;;14.10;99.90;;;;;;4969047;28;20042;-86
2022/06/09 02:34:19;;;;;;;37.90;19.33;;;14.10;99.90;;;;;;4947480;28;20047;-82
2022/06/09 02:36:45;;;;;;;42.17;19.77;;;14.10;99.90;;;;;;4968176;28;20038;-85
2022/06/09 02:39:11;;;;;;;49.63;20.80;;;14.10;99.90;;;;;;4966768;28;20038;-83
2022/06/09 02:41:37;;;;;;;61.15;23.13;;;14.00;99.90;;;;;;4952487;28;20130;-82
2022/06/09 02:44:03;;;;;;;55.83;21.73;;;14.80;99.90;;;;;;4979311;28;20043;-81
2022/06/09 02:46:30;;;;;;;58.30;23.52;;;14.00;99.90;;;;;;4966237;28;20046;-86
2022/06/09 02:48:57;;;;;;;49.33;20.92;;;14.00;99.90;;;;;;4952492;28;20046;-86
2022/06/09 02:51:26;;;;;;;52.83;22.08;;;14.00;99.90;;;;;;4966596;28;20047;-83
2022/06/09 02:53:56;;;;;;;48.83;22.00;;;14.10;99.90;;;;;;4983765;28;20376;-82
2022/06/09 02:56:22;;;;;;;44.58;21.27;;;14.00;99.90;;;;;;4941925;28;20043;-86
2022/06/09 02:58:48;;;;;;;48.85;22.88;;;14.00;99.90;;;;;;4961059;28;20083;-81
2022/06/09 03:01:14;;;;;;;41.90;21.35;;;14.00;99.90;;;;;;4965258;28;20055;-84
2022/06/09 03:03:40;;;;;;;51.80;22.63;;;14.00;99.90;;;;;;4967125;28;20050;-83
2022/06/09 03:06:05;;;;;;;39.42;20.58;;;13.90;99.90;;;;;;4948180;28;20043;-83
2022/06/09 03:08:32;;;;;;;52.33;25.77;;;13.90;99.90;;;;;;4950896;28;20034;-85
2022/06/09 03:10:58;;;;;;;59.70;25.02;;;13.90;99.90;;;;;;4945807;28;20054;-83
2022/06/09 03:13:24;;;;;;;54.08;24.55;;;14.90;99.90;;;;;;4966335;28;20532;-86
2022/06/09 03:15:50;;;;;;;50.97;20.25;;;13.90;99.90;;;;;;4967827;28;20055;-80
2022/06/09 03:18:17;;;;;;;34.08;16.45;;;13.90;99.90;;;;;;4964521;28;20066;-85
2022/06/09 03:20:44;;;;;;;33.80;15.73;;;13.90;99.90;;;;;;4950953;28;20055;-84
2022/06/09 03:23:10;;;;;;;34.88;14.13;;;13.90;99.90;;;;;;4948712;28;20051;-85
2022/06/09 03:25:37;;;;;;;27.75;14.27;;;13.90;99.90;;;;;;4966265;28;20161;-81
2022/06/09 03:28:04;;;;;;;29.27;13.70;;;13.90;99.90;;;;;;4947230;28;20034;-83
2022/06/09 03:30:30;;;;;;;37.15;12.57;;;14.00;99.90;;;;;;4964700;28;20086;-86
2022/06/09 03:32:56;;;;;;;32.67;12.13;;;13.90;99.90;;;;;;4964164;28;20423;-83
2022/06/09 03:35:21;;;;;;;33.88;13.63;;;13.90;99.90;;;;;;4949107;28;20049;-82
2022/06/09 03:37:47;;;;;;;30.20;12.43;;;13.90;99.90;;;;;;4981503;28;20121;-84
2022/06/09 03:40:16;;;;;;;33.97;14.23;;;13.90;99.90;;;;;;4962395;28;20071;-87
2022/06/09 03:42:41;;;;;;;32.88;11.85;;;13.90;99.90;;;;;;4966470;28;20066;-86
2022/06/09 03:45:08;;;;;;;29.48;12.57;;;14.80;99.90;;;;;;4963779;28;20058;-86
2022/06/09 03:47:34;;;;;;;34.55;13.32;;;13.90;99.90;;;;;;4965910;28;20085;-85
2022/06/09 03:50:00;;;;;;;36.03;12.82;;;13.80;99.90;;;;;;4951859;28;20145;-85
2022/06/09 03:52:25;;;;;;;36.67;13.70;;;13.70;99.90;;;;;;4964724;28;20512;-86
2022/06/09 03:54:51;;;;;;;33.28;13.00;;;13.70;99.90;;;;;;4952199;28;20443;-85
2022/06/09 03:57:17;;;;;;;31.75;12.88;;;14.60;99.90;;;;;;4966250;28;20363;-83
2022/06/09 03:59:43;;;;;;;27.27;10.88;;;13.70;99.90;;;;;;4945931;28;20051;-82
2022/06/09 04:02:08;;;;;;;29.15;12.32;;;13.80;99.90;;;;;;4965024;28;20059;-85
2022/06/09 04:04:34;;;;;;;32.78;14.50;;;13.70;99.90;;;;;;4969073;28;20049;-83
2022/06/09 04:07:00;;;;;;;37.92;15.85;;;13.70;99.90;;;;;;4949089;28;20318;-83
2022/06/09 04:09:25;;;;;;;30.13;13.38;;;13.70;99.90;;;;;;4951831;28;20035;-81
2022/06/09 04:11:51;;;;;;;32.03;15.57;;;13.70;99.90;;;;;;4966226;28;20046;-85
2022/06/09 04:14:17;;;;;;;32.58;14.57;;;13.70;99.90;;;;;;4969971;28;20039;-86
2022/06/09 04:16:44;;;;;;;30.70;14.95;;;14.50;99.90;;;;;;4967404;28;20499;-84
2022/06/09 04:19:13;;;;;;;27.20;13.57;;;13.70;99.90;;;;;;4968826;28;20495;-86
2022/06/09 04:21:48;;;;;;;24.10;14.07;;;13.70;99.90;;;;;;4971507;28;20307;-82
2022/06/09 04:24:13;;;;;;;18.10;14.50;;;13.70;99.90;;;;;;4967690;28;20050;-81
2022/06/09 04:26:46;;;;;;;19.85;14.38;;;13.70;99.90;;;;;;4972395;28;20119;-79
2022/06/09 04:29:13;;;;;;;22.48;16.17;;;14.10;99.90;;;;;;4966322;28;20047;-84
2022/06/09 04:31:40;;;;;;;24.77;16.20;;;15.20;99.90;;;;;;4971428;28;20129;-83
2022/06/09 04:34:06;;;;;;;22.02;16.10;;;13.80;99.90;;;;;;4955951;28;20058;-82
2022/06/09 04:36:32;;;;;;;21.27;16.73;;;13.90;99.90;;;;;;4955703;28;20096;-82
2022/06/09 04:38:58;;;;;;;25.88;17.38;;;14.80;99.90;;;;;;4979141;28;20486;-81
2022/06/09 04:41:24;;;;;;;21.25;16.67;;;13.80;99.90;;;;;;4983566;28;20043;-85
2022/06/09 04:43:49;;;;;;;25.30;17.02;;;13.80;99.90;;;;;;4967645;28;20574;-84
2022/06/09 04:46:19;;;;;;;21.73;17.83;;;14.00;99.90;;;;;;4970492;28;20380;-85
2022/06/09 04:48:45;;;;;;;26.02;16.88;;;14.30;99.90;;;;;;4952459;28;20826;-82
2022/06/09 04:51:13;;;;;;;20.75;17.80;;;14.40;99.90;;;;;;4973008;28;20050;-84
2022/06/09 04:53:39;;;;;;;23.98;18.40;;;15.20;99.90;;;;;;4952206;28;20054;-79
2022/06/09 04:56:06;;;;;;;23.38;18.65;;;14.90;99.90;;;;;;4953262;28;20050;-83
2022/06/09 04:58:32;;;;;;;24.95;19.83;;;13.90;99.90;;;;;;4962590;28;20050;-79
2022/06/09 05:00:57;;;;;;;27.90;20.02;;;14.00;99.90;;;;;;4951428;28;20047;-81
2022/06/09 05:03:27;;;;;;;28.05;21.65;;;13.90;99.90;;;;;;4969879;28;20043;-84
2022/06/09 05:05:53;;;;;;;33.05;22.55;;;14.20;99.90;;;;;;4949987;28;20035;-78
2022/06/09 05:08:19;;;;;;;26.38;21.17;;;13.80;99.90;;;;;;4971351;28;20046;-80
2022/06/09 05:10:46;;;;;;;25.63;21.95;;;13.80;99.90;;;;;;4950704;28;20047;-85
2022/06/09 05:13:13;;;;;;;28.58;22.55;;;13.80;99.90;;;;;;4954671;28;20051;-82
2022/06/09 05:15:53;;;;;;;30.02;21.88;;;14.70;99.90;;;;;;4967466;28;20043;-82
2022/06/09 05:18:21;;;;;;;26.73;20.83;;;13.80;99.90;;;;;;4983229;28;20046;-80
2022/06/09 05:20:49;;;;;;;27.70;22.60;;;13.70;99.90;;;;;;4949475;28;20051;-79
2022/06/09 05:23:15;;;;;;;33.70;24.70;;;13.70;99.90;;;;;;4965286;28;20045;-83
2022/06/09 05:25:40;;;;;;;32.20;24.02;;;14.50;99.90;;;;;;4970443;28;20031;-78
2022/06/09 05:28:06;;;;;;;33.42;24.85;;;14.70;99.90;;;;;;4955231;28;20082;-82
2022/06/09 05:30:32;;;;;;;30.45;24.45;;;13.80;99.90;;;;;;4972336;28;20062;-84
2022/06/09 05:32:57;;;;;;;31.88;23.35;;;14.50;99.90;;;;;;4965136;28;20047;-85
2022/06/09 05:35:24;;;;;;;27.42;23.30;;;14.30;99.90;;;;;;4955376;28;20255;-85
2022/06/09 05:46:04;;;;;;;32.13;25.45;;;14.00;99.90;;;;;;4966617;28;20074;-84
2022/06/09 05:48:30;;;;;;;27.95;23.98;;;13.90;99.90;;;;;;4978942;28;20043;-81
2022/06/09 05:50:57;;;;;;;36.03;25.52;;;15.20;99.90;;;;;;4970867;28;20517;-85
2022/06/09 05:53:23;;;;;;;29.48;24.52;;;13.90;99.90;;;;;;4963728;28;20070;-84
2022/06/09 05:55:48;;;;;;;29.95;25.60;;;13.90;99.90;;;;;;4955984;28;20046;-83
2022/06/09 05:58:14;;;;;;;28.73;23.63;;;13.90;99.90;;;;;;4972470;28;20093;-82
2022/06/09 06:00:45;;;;;;;29.35;24.95;;;14.00;99.90;;;;;;4948890;28;20047;-82
2022/06/09 06:03:12;;;;;;;30.65;25.50;;;13.90;99.90;;;;;;4971078;28;20045;-85
2022/06/09 06:08:24;;;;;;;28.45;25.30;;;13.90;99.90;;;;;;4971802;28;20066;-85
2022/06/09 06:10:50;;;;;;;28.63;25.50;;;13.90;99.90;;;;;;4965079;28;20070;-80
2022/06/09 06:13:15;;;;;;;34.25;26.05;;;14.00;99.90;;;;;;4969647;28;20129;-80
2022/06/09 06:15:41;;;;;;;28.13;24.95;;;15.20;99.90;;;;;;4962946;28;20122;-84
2022/06/09 06:18:07;;;;;;;25.90;23.02;;;14.00;99.90;;;;;;4958358;28;20464;-83
2022/06/09 06:20:41;;;;;;;28.48;25.13;;;14.70;99.90;;;;;;4953482;28;20042;-83
2022/06/09 06:23:07;;;;;;;26.27;23.50;;;14.10;99.90;;;;;;4971629;28;20069;-85
2022/06/09 06:25:33;;;;;;;25.02;21.38;;;14.20;99.90;;;;;;4947040;28;20129;-84
2022/06/09 06:28:02;;;;;;;25.55;20.05;;;14.10;99.90;;;;;;4968677;28;20120;-79
2022/06/09 06:30:27;;;;;;;23.13;20.50;;;14.20;99.90;;;;;;4952161;28;20077;-82
2022/06/09 06:32:53;;;;;;;23.60;21.05;;;15.10;99.90;;;;;;4950483;28;20478;-80
2022/06/09 06:35:18;;;;;;;25.77;22.95;;;14.80;99.90;;;;;;4970280;28;20108;-83
2022/06/09 06:37:45;;;;;;;24.02;21.60;;;14.30;99.90;;;;;;4968969;28;20035;-81
2022/06/09 06:40:13;;;;;;;23.23;20.83;;;14.40;99.90;;;;;;4949659;28;20043;-83
2022/06/09 06:42:39;;;;;;;21.25;19.02;;;14.40;99.90;;;;;;4965961;28;20043;-84
2022/06/09 06:45:06;;;;;;;21.42;18.75;;;14.40;99.90;;;;;;4982498;28;20050;-84
2022/06/09 06:47:32;;;;;;;18.85;16.85;;;14.40;99.90;;;;;;4949665;28;20137;-81
2022/06/09 06:49:58;;;;;;;20.70;16.33;;;14.50;99.90;;;;;;4969811;28;20063;-80
2022/06/09 06:52:23;;;;;;;18.83;16.40;;;14.50;99.90;;;;;;4953114;28;20467;-80
2022/06/09 06:54:50;;;;;;;18.13;16.25;;;15.00;99.90;;;;;;4949783;28;20699;-81
2022/06/09 06:57:16;;;;;;;19.83;16.17;;;15.40;99.90;;;;;;4964937;28;20422;-83
2022/06/09 06:59:42;;;;;;;16.52;14.57;;;14.60;99.90;;;;;;4984752;28;20050;-81
2022/06/09 07:02:10;;;;;;;13.82;12.55;;;15.60;99.90;;;;;;4948043;28;20094;-80
2022/06/09 07:04:36;;;;;;;13.75;12.35;;;14.70;99.90;;;;;;4969610;28;20125;-77
2022/06/09 07:07:01;;;;;;;12.95;11.85;;;14.70;99.90;;;;;;4956092;28;20070;-82
2022/06/09 07:09:27;;;;;;;21.33;12.40;;;14.80;99.90;;;;;;4970801;28;20046;-77
2022/06/09 07:11:52;;;;;;;10.48;9.55;;;14.80;99.90;;;;;;4965876;28;20403;-77
2022/06/09 07:14:19;;;;;;;13.60;10.90;;;14.90;99.90;;;;;;4953250;28;20050;-79
2022/06/09 07:16:45;;;;;;;12.55;10.15;;;16.20;99.90;;;;;;4969894;28;20117;-83
2022/06/09 07:19:11;;;;;;;10.43;9.10;;;15.20;99.90;;;;;;4972156;28;20086;-81
2022/06/09 07:21:38;;;;;;;10.50;8.48;;;15.20;99.90;;;;;;4988093;28;20039;-76
2022/06/09 07:24:04;;;;;;;8.68;7.88;;;15.20;99.90;;;;;;4970504;28;20089;-80
2022/06/09 07:26:29;;;;;;;8.80;6.53;;;15.30;99.90;;;;;;4973314;28;20093;-79
2022/06/09 07:28:55;;;;;;;11.20;6.53;;;15.70;99.90;;;;;;4966507;28;20059;-81
2022/06/09 07:31:23;;;;;;;8.93;5.65;;;15.70;99.90;;;;;;4972991;28;20499;-80
2022/06/09 07:33:48;;;;;;;6.65;4.70;;;15.40;99.90;;;;;;4967524;28;20070;-81
2022/06/09 07:36:18;;;;;;;7.13;5.30;;;15.90;99.90;;;;;;4950713;28;20459;-82
2022/06/09 07:38:44;;;;;;;7.45;5.00;;;15.50;99.90;;;;;;4953568;28;20047;-83
2022/06/09 07:41:11;;;;;;;6.50;3.65;;;15.60;99.90;;;;;;4968992;28;20045;-82
2022/06/09 07:43:49;;;;;;;8.90;3.75;;;15.70;99.90;;;;;;4955362;28;20103;-83
2022/06/09 07:46:17;;;;;;;5.25;3.33;;;15.70;99.90;;;;;;4960979;28;20395;-78
2022/06/09 07:48:44;;;;;;;3.13;2.70;;;15.70;99.90;;;;;;4947097;28;20046;-79
2022/06/09 07:51:11;;;;;;;4.22;3.03;;;16.70;99.90;;;;;;4956304;28;20046;-83
2022/06/09 07:53:37;;;;;;;4.78;2.92;;;15.90;99.90;;;;;;4950177;28;20380;-78
2022/06/09 07:56:03;;;;;;;6.03;2.38;;;17.10;99.90;;;;;;4969227;28;20383;-81
2022/06/09 07:58:30;;;;;;;4.90;2.17;;;16.00;99.90;;;;;;4966464;28;20042;-79
2022/06/09 08:00:55;;;;;;;2.75;1.90;;;16.00;99.90;;;;;;4946809;28;20554;-80
2022/06/09 08:03:24;;;;;;;4.65;2.00;;;16.20;99.90;;;;;;4963376;28;20046;-80
2022/06/09 08:05:50;;;;;;;8.20;2.15;;;16.20;99.90;;;;;;4970283;28;20050;-80
2022/06/09 08:08:16;;;;;;;9.07;1.95;;;16.40;99.90;;;;;;4966966;28;20043;-76
2022/06/09 08:10:43;;;;;;;3.25;1.58;;;16.30;99.90;;;;;;4969238;28;20430;-82
2022/06/09 08:13:10;;;;;;;6.32;1.25;;;16.40;99.90;;;;;;4970773;28;20090;-83
2022/06/09 08:15:36;;;;;;;11.68;5.25;;;16.40;99.90;;;;;;4965730;28;20086;-80
2022/06/09 08:18:02;;;;;;;6.00;1.52;;;16.40;99.90;;;;;;4985981;28;20047;-85
2022/06/09 08:20:32;;;;;;;7.18;1.42;;;16.50;99.90;;;;;;4967369;28;20035;-84
2022/06/09 08:23:01;;;;;;;3.80;0.93;;;16.50;99.90;;;;;;4961877;28;20046;-83
2022/06/09 08:25:27;;;;;;;3.53;1.02;;;17.30;99.90;;;;;;4964884;28;20038;-83
2022/06/09 08:27:53;;;;;;;2.92;0.70;;;16.60;99.90;;;;;;4962072;28;20054;-83
2022/06/09 08:30:19;;;;;;;6.03;1.20;;;18.00;99.90;;;;;;4953234;28;20137;-82
2022/06/09 08:32:45;;;;;;;6.70;1.20;;;16.80;99.90;;;;;;4963549;28;20049;-78
2022/06/09 08:35:16;;;;;;;4.78;1.00;;;16.80;99.90;;;;;;4971092;28;20038;-81
2022/06/09 08:37:45;;;;;;;4.55;0.80;;;16.90;99.90;;;;;;4962218;28;20054;-81
2022/06/09 08:40:14;;;;;;;4.70;0.93;;;16.90;99.90;;;;;;4969224;28;20042;-83
2022/06/09 08:42:48;;;;;;;6.43;0.93;;;16.90;99.90;;;;;;4965770;28;20089;-81
2022/06/09 08:45:24;;;;;;;2.47;0.60;;;16.90;99.90;;;;;;4987504;28;20150;-81
2022/06/09 08:47:54;;;;;;;3.03;0.93;;;17.00;99.90;;;;;;4951025;28;20622;-83
2022/06/09 08:50:28;;;;;;;4.05;0.93;;;17.00;99.90;;;;;;4946361;28;20149;-82
2022/06/09 08:52:55;;;;;;;3.13;0.77;;;17.10;99.90;;;;;;4965227;28;20499;-83
2022/06/09 08:55:27;;;;;;;9.73;1.42;;;17.10;99.90;;;;;;4966979;28;20195;-85
2022/06/09 08:57:59;;;;;;;1.88;0.88;;;17.10;99.90;;;;;;4970022;28;20053;-83
2022/06/09 09:00:31;;;;;;;3.60;0.85;;;17.40;99.90;;;;;;4973145;28;20055;-84
2022/06/09 09:03:03;;;;;;;5.65;1.05;;;17.10;99.90;;;;;;4966764;28;20109;-82
2022/06/09 09:05:40;;;;;;;9.13;1.05;;;17.20;99.90;;;;;;4972079;28;20035;-80
2022/06/09 09:08:08;;;;;;;4.20;0.93;;;17.20;99.90;;;;;;4966555;28;20062;-82
2022/06/09 09:11:01;;;;;;;4.40;0.90;;;17.30;99.90;;;;;;4948430;28;20049;-79
2022/06/09 09:13:38;;;;;;;5.88;0.63;;;17.30;99.90;;;;;;4970134;28;21700;-85
2022/06/09 09:16:41;;;;;;;3.38;0.75;;;17.40;99.90;;;;;;4970880;28;20043;-85
2022/06/09 09:19:34;;;;;;;4.80;0.80;;;17.30;99.90;;;;;;4934918;28;20066;-84
2022/06/09 09:22:04;;;;;;;4.13;1.63;;;17.40;99.90;;;;;;4969472;28;20043;-82
2022/06/09 09:24:45;;;;;;;5.90;0.70;;;17.40;99.90;;;;;;4981709;28;20097;-83
2022/06/09 09:27:17;;;;;;;3.78;0.85;;;17.60;99.90;;;;;;4966998;28;20054;-80
2022/06/09 09:30:04;;;;;;;4.32;0.93;;;17.70;99.90;;;;;;4969043;28;20121;-81
2022/06/09 09:32:45;;;;;;;6.43;1.20;;;17.70;99.90;;;;;;4992267;28;20047;-80
2022/06/09 09:35:24;;;;;;;7.68;1.90;;;17.80;99.90;;;;;;4982626;28;20086;-80
2022/06/09 09:37:54;;;;;;;3.40;0.63;;;17.90;99.90;;;;;;4961679;28;20130;-77
2022/06/09 09:40:26;;;;;;;8.13;1.25;;;17.90;99.90;;;;;;4967921;28;20050;-77
2022/06/09 09:42:55;;;;;;;4.47;1.25;;;17.90;99.90;;;;;;4966951;28;20154;-79
2022/06/09 09:45:49;;;;;;;7.13;1.27;;;18.00;99.90;;;;;;4970783;28;20082;-77
2022/06/09 09:48:18;;;;;;;7.47;1.83;;;18.00;99.90;;;;;;4949832;28;20086;-85
2022/06/09 09:50:58;;;;;;;6.40;1.15;;;18.00;99.90;;;;;;4960051;28;20554;-76
2022/06/09 09:53:29;;;;;;;6.93;1.80;;;18.00;99.90;;;;;;4969126;28;20047;-77
2022/06/09 09:56:17;;;;;;;4.65;0.98;;;18.10;99.90;;;;;;4966106;28;20371;-80
2022/06/09 09:58:48;;;;;;;6.15;0.80;;;18.00;99.90;;;;;;4953751;28;20058;-79
2022/06/09 10:01:14;;;;;;;5.53;0.98;;;18.20;99.90;;;;;;4987745;28;20040;-82
2022/06/09 10:09:35;;;;;;;6.55;1.10;;;18.20;99.90;;;;;;4959750;28;20122;-82
2022/06/09 10:12:16;;;;;;;8.20;1.58;;;18.20;99.90;;;;;;4966056;28;20050;-86
2022/06/09 10:14:48;;;;;;;8.57;0.90;;;18.20;99.90;;;;;;4961197;28;20372;-80
2022/06/09 10:17:39;;;;;;;6.80;1.30;;;18.40;99.90;;;;;;4946901;28;20055;-84
2022/06/09 10:20:14;;;;;;;5.25;2.17;;;18.30;99.90;;;;;;4966798;28;20079;-83
2022/06/09 10:22:54;;;;;;;6.30;1.02;;;18.40;99.90;;;;;;4964106;28;20169;-80
2022/06/09 10:25:27;;;;;;;6.25;0.93;;;18.40;99.90;;;;;;4966642;28;20042;-78
2022/06/09 10:28:00;;;;;;;5.95;0.68;;;18.50;99.90;;;;;;4964450;28;20038;-76
2022/06/09 10:30:40;;;;;;;3.75;0.63;;;18.40;99.90;;;;;;4944325;28;20058;-79
2022/06/09 10:33:31;;;;;;;7.57;1.20;;;18.50;99.90;;;;;;4968541;28;21814;-79
2022/06/09 10:36:06;;;;;;;8.35;1.55;;;18.60;99.90;;;;;;4969249;28;20427;-79
2022/06/09 10:38:48;;;;;;;4.70;1.05;;;18.60;99.90;;;;;;4980513;28;20491;-80
2022/06/09 10:41:52;;;;;;;6.65;0.75;;;18.70;99.90;;;;;;4966701;28;20040;-79
2022/06/09 10:44:37;;;;;;;8.17;1.03;;;18.80;99.90;;;;;;4951094;28;20101;-77
2022/06/09 10:56:02;;;;;;;3.95;0.45;;;19.10;99.90;;;;;;4964563;28;20047;-78
2022/06/09 10:58:34;;;;;;;6.18;0.63;;;19.00;99.90;;;;;;4972998;28;20062;-81
2022/06/09 11:01:02;;;;;;;4.07;0.70;;;18.80;99.90;;;;;;4967259;28;20051;-80
2022/06/09 11:03:44;;;;;;;5.93;0.93;;;18.80;99.90;;;;;;4954755;28;20417;-79
2022/06/09 11:06:31;;;;;;;5.40;0.55;;;18.80;99.90;;;;;;4971740;28;20047;-80
2022/06/09 11:09:15;;;;;;;6.15;1.08;;;18.70;99.90;;;;;;4964568;28;20124;-75
2022/06/09 11:12:09;;;;;;;5.47;1.30;;;18.50;99.90;;;;;;4946357;28;20042;-75
2022/06/09 11:14:47;;;;;;;4.95;0.80;;;18.50;99.90;;;;;;4959927;28;20047;-76
2022/06/09 11:17:30;;;;;;;4.72;1.10;;;18.40;99.90;;;;;;4971471;28;20142;-75
2022/06/09 11:20:27;;;;;;;7.57;0.82;;;18.50;99.90;;;;;;4972696;28;20372;-75
2022/06/09 11:23:04;;;;;;;3.58;0.73;;;18.70;99.90;;;;;;4965745;28;20068;-75
2022/06/09 11:25:48;;;;;;;4.53;0.70;;;18.70;99.90;;;;;;4967454;28;20089;-77
2022/06/09 11:28:25;;;;;;;4.18;1.20;;;18.90;99.90;;;;;;4967370;28;20043;-76
2022/06/09 11:31:25;;;;;;;3.55;0.57;;;19.00;99.90;;;;;;4969443;28;20142;-76
2022/06/09 11:34:17;;;;;;;3.30;0.80;;;19.00;99.90;;;;;;4963520;28;20098;-78
2022/06/09 11:36:52;;;;;;;5.40;1.02;;;18.90;99.90;;;;;;4959583;28;20046;-83
2022/06/09 11:39:35;;;;;;;3.22;0.68;;;18.90;99.90;;;;;;4969807;28;20038;-81
2022/06/09 11:42:09;;;;;;;8.68;0.75;;;19.00;99.90;;;;;;4970396;28;20047;-80
2022/06/09 11:44:36;;;;;;;;;;;19.10;99.90;;;;;;4964346;28;20051;-81
2022/06/09 11:47:09;;;;;;;3.92;0.50;;;19.20;99.90;;;;;;4947021;28;19950;-81
2022/06/09 11:49:45;;;;;;;4.75;0.90;;;19.30;99.90;;;;;;4969956;28;20047;-76
2022/06/09 11:52:19;;;;;;;4.68;1.00;;;19.40;99.90;;;;;;4967627;28;20050;-81
2022/06/09 11:54:48;;;;;;;;;;;19.40;99.90;;;;;;4964351;28;20086;-81
2022/06/09 11:57:16;;;;;;;6.82;1.05;;;19.30;99.90;;;;;;4966493;28;19922;-77
2022/06/09 12:00:03;;;;;;;5.07;1.08;;;19.20;99.90;;;;;;4964037;28;20053;-82
2022/06/09 12:02:57;;;;;;;3.75;0.50;;;19.20;99.90;;;;;;4969695;28;20117;-79
2022/06/09 12:05:53;;;;;;;11.00;1.60;;;19.20;99.90;;;;;;4969275;28;20054;-76
2022/06/09 12:08:41;;;;;;;4.03;0.65;;;19.50;99.90;;;;;;4967263;28;20114;-84
2022/06/09 12:11:18;;;;;;;6.72;0.98;;;19.50;99.90;;;;;;4968718;28;20494;-74
2022/06/09 12:14:21;;;;;;;3.47;1.17;;;19.60;99.90;;;;;;4958324;28;20526;-76
2022/06/09 12:17:08;;;;;;;4.07;0.60;;;19.60;99.90;;;;;;4981199;28;20065;-79
2022/06/09 12:19:50;;;;;;;5.18;0.70;;;19.40;99.90;;;;;;4992084;28;20043;-80
2022/06/09 12:22:40;;;;;;;7.40;1.27;;;19.50;99.90;;;;;;4963350;28;20190;-90
2022/06/09 12:25:11;;;;;;;5.70;1.30;;;19.50;99.90;;;;;;4968964;28;20050;-88
2022/06/09 12:27:37;;;;;;;3.63;0.73;;;20.40;99.90;;;;;;4969414;28;20043;-87
2022/06/09 12:30:02;;;;;;;6.35;1.20;;;19.80;99.90;;;;;;4966976;28;20058;-85
2022/06/09 12:32:40;;;;;;;5.32;0.90;;;19.70;99.90;;;;;;4990960;28;20055;-87
2022/06/09 12:35:29;;;;;;;6.50;0.93;;;19.70;99.90;;;;;;4978058;28;20039;-87
2022/06/09 12:38:06;;;;;;;3.83;0.88;;;19.50;99.90;;;;;;4960055;28;20269;-86
2022/06/09 12:40:54;;;;;;;2.83;0.88;;;19.60;99.90;;;;;;4969285;28;20490;-81
2022/06/09 12:43:25;;;;;;;3.25;0.55;;;19.70;99.90;;;;;;4953431;28;20074;-82
2022/06/09 12:46:19;;;;;;;4.90;1.00;;;19.80;99.90;;;;;;4974524;28;20049;-84
2022/06/09 12:48:45;;;;;;;4.80;1.00;;;19.80;99.90;;;;;;4984577;28;20137;-83
2022/06/09 12:51:32;;;;;;;6.57;1.02;;;19.70;99.90;;;;;;4970154;28;20046;-82
2022/06/09 12:54:05;;;;;;;5.90;1.20;;;19.90;99.90;;;;;;4968114;28;20050;-85
2022/06/09 12:56:43;;;;;;;3.35;1.02;;;19.90;99.90;;;;;;4973593;28;20043;-84
2022/06/09 12:59:20;;;;;;;4.47;0.73;;;20.10;99.90;;;;;;4972076;28;20126;-81
2022/06/09 13:01:53;;;;;;;2.97;0.88;;;20.80;99.90;;;;;;4974719;28;20121;-81
2022/06/09 13:04:19;;;;;;;5.47;0.95;;;20.50;99.90;;;;;;4995800;28;20035;-88
2022/06/09 13:06:47;;;;;;;5.68;1.00;;;20.50;99.90;;;;;;4960457;28;20133;-88
2022/06/09 13:09:24;;;;;;;6.80;0.80;;;20.50;99.90;;;;;;4971195;28;20102;-75
2022/06/09 13:14:48;;;;;;;3.88;1.30;;;20.30;99.90;;;;;;4984784;28;20054;-85
2022/06/09 13:17:24;;;;;;;3.03;1.02;;;20.30;99.90;;;;;;4969443;28;20482;-80
2022/06/09 13:20:02;;;;;;;6.68;1.02;;;20.30;99.90;;;;;;4977146;28;20496;-75
2022/06/09 13:22:29;;;;;;;6.40;0.93;;;19.60;99.90;;;;;;4990042;28;20499;-76
2022/06/09 13:24:56;;;;;;;3.90;0.60;;;20.40;99.90;;;;;;4988070;28;20150;-79
2022/06/09 13:27:26;;;;;;;5.40;0.90;;;20.50;99.90;;;;;;4956176;28;20483;-75